Airport View

Enter AWOS ICAO identifier for current METAR.

ex. KFNL

KECU 210035Z AUTO 15010G15KT 120V180 10SM CLR 30/15 A2998 RMK AO2

21 Sep 2019 00:51

Frequency: 118.175

Phone: 830-683-2425

Other Area AWOS: KJCT - KSOA - KUVA - KDLF

TAF KJCT 202340Z 2100/2124 17011G17KT P6SM BKN090 FM210700 15010G17KT P6SM BKN015 FM211500 17015G23KT P6SM BKN025